Flight Track Log - Related Links

Times and Time Zones

All times are in EDT time to prevent confusion due to time zone crossing. See the N121JM flight status page for this flight to view local times or setup timezone preferences in your user account.


Time Position Orientation Groundspeed Altitude Reporting Facility
EDT Latitude Longitude Course Direction KTS MPH feet Rate Location/Type
Sun 09:25:43 PM 40.7667 -74.4333 227° Southwest 178 205 1,900  Level New York TRACON
Sun 09:26:42 PM 40.7167 -74.4000 153° Southeast 199 229 5,600 2,526 Climbing New York TRACON
Sun 09:27:37 PM 40.6667 -74.3500 143° Southeast 272 313 6,700 1,050 Climbing New York TRACON
Sun 09:28:42 PM 40.6167 -74.4167 225° Southwest 288 331 7,700 141 Climbing New York TRACON
Sun 09:31:00 PM 40.5840 -74.7087 227° Southwest  Level FlightAware Approximate
Sun 09:33:59 PM 40.5620 -74.9630 261° West 289 333 7,600  Level FlightAware ADS-B
Sun 09:35:33 PM 40.5444 -75.1096 262° West 290 334 7,600 -160 Level FlightAware ADS-B
Sun 09:36:29 PM 40.5327 -75.2236 262° West 285 328 7,200 -480 Descending FlightAware ADS-B
Sun 09:36:48 PM 40.5311 -75.2390 262° West 284 327 7,000 -625 Descending FlightAware ADS-B
Sun 09:37:17 PM 40.5266 -75.2837 262° West 278 320 6,700 -193 Descending FlightAware ADS-B
Sun 09:43:33 PM 40.1071 -75.5020 198° South 283 326 5,700 -271 Descending FlightAware ADS-B
Sun 09:44:17 PM 40.0501 -75.5269 199° South 266 306 4,800 -1,280 Descending FlightAware ADS-B
Sun 09:44:48 PM 40.0213 -75.5396 199° South 261 300 4,100 -1,435 Descending FlightAware ADS-B
Sun 09:45:03 PM 40.0080 -75.5454 199° South 259 298 3,700 -1,579 Descending FlightAware ADS-B
Sun 09:45:26 PM 39.9849 -75.5556 199° South 258 297 3,100 -1,600 Descending FlightAware ADS-B (BHX / EGBB)
Sun 09:45:48 PM 39.9526 -75.5701 199° South 256 295 2,500 -1,080 Descending FlightAware ADS-B
Sun 09:46:16 PM 39.9248 -75.5818 194° South 241 277 2,200 -409 Descending FlightAware ADS-B
Sun 09:46:32 PM 39.8995 -75.5840 177° South 219 252 2,200 -194 Level FlightAware ADS-B
Sun 09:46:47 PM 39.8845 -75.5828 178° South 212 244 2,100 -400 Descending FlightAware ADS-B
Sun 09:47:02 PM 39.8700 -75.5828 182° South 207 238 2,000 -400 Descending FlightAware ADS-B
Sun 09:47:17 PM 39.8553 -75.5836 183° South 200 230 1,900 -600 Descending FlightAware ADS-B
Sun 09:47:32 PM 39.8431 -75.5846 184° South 198 228 1,700 -533 Descending FlightAware ADS-B
Sun 09:48:02 PM 39.8145 -75.5870 185° South 192 221 1,500 -250 Descending FlightAware ADS-B
Sun 09:48:20 PM 39.8155 -75.5869 186° South 195 224 1,500  Level FlightAware ADS-B (BHX / EGBB)
Sun 09:48:40 PM 39.7812 -75.5913 185° South 184 212 1,500 -300 Level FlightAware ADS-B (BHX / EGBB)
Sun 09:49:00 PM 39.7653 -75.5928 184° South 171 197 1,300 -875 Descending FlightAware ADS-B (BHX / EGBB)
Sun 09:49:28 PM 39.7446 -75.5953 185° South 162 186 800 -1,071 Descending FlightAware ADS-B (BHX / EGBB)

Login

Don't have an account? Register now (free) for customized features, flight alerts, and more!